createdAt,value
2023-04-25T00:00:16.898Z,13.39
2023-04-25T00:02:44.065Z,13.34
2023-04-25T00:05:12.118Z,13.30
2023-04-25T00:07:39.705Z,13.30
2023-04-25T00:10:07.537Z,13.14
2023-04-25T00:12:34.720Z,13.41
2023-04-25T00:15:01.746Z,13.39
2023-04-25T00:17:29.353Z,13.05
2023-04-25T00:19:57.115Z,13.23
2023-04-25T00:22:24.121Z,13.21
2023-04-25T00:24:51.605Z,12.73
2023-04-25T00:27:18.649Z,13.11
2023-04-25T00:29:45.943Z,13.14
2023-04-25T00:32:12.869Z,13.34
2023-04-25T00:34:39.768Z,13.26
2023-04-25T00:37:07.232Z,12.99
2023-04-25T00:39:34.232Z,13.06
2023-04-25T00:42:03.151Z,12.85
2023-04-25T00:44:31.192Z,13.11
2023-04-25T00:46:58.688Z,13.02
2023-04-25T00:49:25.717Z,13.22
2023-04-25T00:51:52.673Z,13.34
2023-04-25T00:54:19.734Z,13.30
2023-04-25T00:56:46.745Z,13.36
2023-04-25T00:59:14.630Z,13.17
2023-04-25T01:01:44.002Z,13.37
2023-04-25T01:04:12.551Z,13.30
2023-04-25T01:06:39.737Z,13.56
2023-04-25T01:09:06.876Z,13.17
2023-04-25T01:11:33.856Z,13.42
2023-04-25T01:14:01.753Z,13.43
2023-04-25T01:16:29.225Z,13.04
2023-04-25T01:18:56.544Z,13.19
2023-04-25T01:21:23.596Z,13.08
2023-04-25T01:23:51.602Z,13.36
2023-04-25T01:26:18.993Z,13.06
2023-04-25T01:28:46.586Z,13.46
2023-04-25T01:31:14.200Z,13.42
2023-04-25T01:33:41.317Z,13.47
2023-04-25T01:36:08.476Z,13.30
2023-04-25T01:38:35.478Z,13.74
2023-04-25T01:41:02.702Z,13.26
2023-04-25T01:43:29.987Z,13.49
2023-04-25T01:45:58.317Z,13.56
2023-04-25T01:48:25.256Z,13.72
2023-04-25T01:50:52.372Z,13.47
2023-04-25T01:53:19.303Z,13.38
2023-04-25T01:55:46.229Z,13.36
2023-04-25T01:58:14.219Z,13.49
2023-04-25T02:00:42.080Z,13.38
2023-04-25T02:03:09.992Z,13.47
2023-04-25T02:05:40.773Z,13.58
2023-04-25T02:08:09.486Z,13.49
2023-04-25T02:10:36.947Z,13.00
2023-04-25T02:13:05.669Z,13.10
2023-04-25T02:15:33.187Z,13.10
2023-04-25T02:18:01.581Z,13.15
2023-04-25T02:20:33.505Z,13.19
2023-04-25T02:23:00.908Z,13.44
2023-04-25T02:25:28.000Z,13.07
2023-04-25T02:27:55.163Z,13.28
2023-04-25T02:30:22.234Z,13.15
2023-04-25T02:32:49.187Z,13.32
2023-04-25T02:35:16.191Z,13.42
2023-04-25T02:37:43.741Z,13.67
2023-04-25T02:40:11.235Z,13.81
2023-04-25T02:42:38.172Z,13.61
2023-04-25T02:45:05.700Z,13.33
2023-04-25T02:47:32.851Z,13.38
2023-04-25T02:49:59.877Z,13.35
2023-04-25T02:52:27.002Z,13.46
2023-04-25T02:54:53.908Z,13.64
2023-04-25T02:57:20.860Z,13.18
2023-04-25T02:59:47.839Z,13.42
2023-04-25T03:02:14.947Z,13.50
2023-04-25T03:04:42.142Z,13.50
2023-04-25T03:07:09.163Z,13.11
2023-04-25T03:09:36.295Z,13.44
2023-04-25T03:12:03.339Z,13.32
2023-04-25T03:14:30.234Z,13.62
2023-04-25T03:16:57.509Z,13.56
2023-04-25T03:19:24.544Z,13.25
2023-04-25T03:21:51.551Z,13.53
2023-04-25T03:24:18.525Z,13.60
2023-04-25T03:26:45.533Z,13.54
2023-04-25T03:29:13.065Z,13.31
2023-04-25T03:31:40.013Z,13.25
2023-04-25T03:34:07.044Z,13.36
2023-04-25T03:36:34.056Z,13.16
2023-04-25T03:39:00.981Z,13.39
2023-04-25T03:41:28.050Z,13.24
2023-04-25T03:43:55.007Z,13.19
2023-04-25T03:46:21.999Z,13.32
2023-04-25T03:48:49.078Z,13.50
2023-04-25T03:51:16.043Z,13.71
2023-04-25T03:53:43.061Z,13.51
2023-04-25T03:56:10.857Z,13.57
2023-04-25T03:58:37.771Z,13.25
2023-04-25T04:01:08.815Z,12.92
2023-04-25T04:03:37.477Z,12.78
2023-04-25T04:06:06.880Z,13.20
2023-04-25T04:08:34.839Z,13.13
2023-04-25T04:11:01.959Z,13.08
2023-04-25T04:13:29.900Z,12.86
2023-04-25T04:15:56.879Z,12.77
2023-04-25T04:18:23.817Z,12.64
2023-04-25T04:20:51.060Z,13.05
2023-04-25T04:23:18.038Z,12.83
2023-04-25T04:25:45.181Z,13.03
2023-04-25T04:28:12.350Z,13.01
2023-04-25T04:30:40.359Z,13.10
2023-04-25T04:33:08.674Z,12.92
2023-04-25T04:35:35.959Z,12.81
2023-04-25T04:38:02.905Z,12.91
2023-04-25T04:40:31.676Z,12.71
2023-04-25T04:42:58.681Z,12.77
2023-04-25T04:45:25.718Z,13.23
2023-04-25T04:47:52.697Z,13.23
2023-04-25T04:50:20.041Z,12.82
2023-04-25T04:52:47.019Z,13.07
2023-04-25T04:55:13.994Z,13.41
2023-04-25T04:57:40.935Z,13.35
2023-04-25T05:00:12.056Z,13.02
2023-04-25T05:02:40.113Z,13.37
2023-04-25T05:05:07.939Z,12.83
2023-04-25T05:07:35.396Z,13.07
2023-04-25T05:10:02.421Z,13.10
2023-04-25T05:12:29.335Z,13.35
2023-04-25T05:14:56.269Z,13.55
2023-04-25T05:17:23.320Z,13.41
2023-04-25T05:19:50.344Z,13.88
2023-04-25T05:22:17.486Z,13.66
2023-04-25T05:24:44.448Z,13.40
2023-04-25T05:27:11.415Z,13.41
2023-04-25T05:29:38.565Z,13.53
2023-04-25T05:32:06.814Z,13.78
2023-04-25T05:34:33.895Z,13.58
2023-04-25T05:37:01.406Z,14.10
2023-04-25T05:39:28.548Z,14.20
2023-04-25T05:41:55.592Z,14.22
2023-04-25T05:44:22.681Z,14.16
2023-04-25T05:46:50.015Z,14.46
2023-04-25T05:49:19.410Z,14.40
2023-04-25T05:51:47.321Z,14.53
2023-04-25T05:54:14.286Z,14.71
2023-04-25T05:56:41.271Z,14.22
2023-04-25T05:59:08.316Z,14.12
2023-04-25T06:01:35.384Z,14.29
2023-04-25T06:04:03.053Z,14.26
2023-04-25T06:06:31.397Z,14.37
2023-04-25T06:08:58.357Z,14.48
2023-04-25T06:11:25.328Z,14.85
2023-04-25T06:13:52.580Z,14.74
2023-04-25T06:16:20.004Z,14.87
2023-04-25T06:18:47.046Z,14.96
2023-04-25T06:21:17.530Z,15.32
2023-04-25T06:23:44.959Z,15.48
2023-04-25T06:26:11.933Z,15.73
2023-04-25T06:28:38.940Z,15.64
2023-04-25T06:31:06.018Z,15.92
2023-04-25T06:33:33.030Z,16.23
2023-04-25T06:35:59.954Z,16.51
2023-04-25T06:38:26.883Z,16.85
2023-04-25T06:40:53.940Z,16.60
2023-04-25T06:43:25.518Z,17.14
2023-04-25T06:45:55.257Z,17.09
2023-04-25T06:48:22.010Z,17.75
2023-04-25T06:50:50.064Z,18.79
2023-04-25T06:53:17.152Z,19.75
2023-04-25T06:55:44.117Z,19.41
2023-04-25T06:58:11.063Z,19.92
2023-04-25T07:00:38.067Z,19.86
2023-04-25T07:03:05.218Z,20.00
2023-04-25T07:05:32.234Z,19.59
2023-04-25T07:07:59.740Z,19.41
2023-04-25T07:10:27.020Z,19.69
2023-04-25T07:12:54.555Z,20.06
2023-04-25T07:15:21.454Z,19.45
2023-04-25T07:17:48.452Z,19.62
2023-04-25T07:20:15.448Z,19.85
2023-04-25T07:22:42.493Z,19.77
2023-04-25T07:25:16.321Z,19.73
2023-04-25T07:27:44.002Z,20.34
2023-04-25T07:30:11.556Z,20.49
2023-04-25T07:32:38.519Z,20.44
2023-04-25T07:35:05.942Z,20.60
2023-04-25T07:37:33.178Z,20.84
2023-04-25T07:40:00.174Z,20.07
2023-04-25T07:42:27.187Z,21.15
2023-04-25T07:44:54.368Z,21.38
2023-04-25T07:47:21.601Z,20.72
2023-04-25T07:49:48.842Z,20.43
2023-04-25T07:52:15.890Z,21.28
2023-04-25T07:54:43.115Z,21.33
2023-04-25T07:57:10.074Z,20.30
2023-04-25T07:59:37.117Z,20.09
2023-04-25T08:02:04.085Z,20.37
2023-04-25T08:04:31.322Z,20.69
2023-04-25T08:06:58.346Z,20.83
2023-04-25T08:09:26.061Z,21.28
2023-04-25T08:11:53.079Z,21.28
2023-04-25T08:14:20.112Z,20.31
2023-04-25T08:16:47.110Z,20.19
2023-04-25T08:19:14.876Z,20.67
2023-04-25T08:21:43.577Z,20.57
2023-04-25T08:24:10.547Z,20.90
2023-04-25T08:26:38.790Z,21.13
2023-04-25T08:29:06.732Z,20.16
2023-04-25T08:31:33.822Z,20.16
2023-04-25T08:34:00.926Z,20.84
2023-04-25T08:36:38.470Z,21.00
2023-04-25T08:39:08.320Z,21.39
2023-04-25T08:41:37.730Z,20.96
2023-04-25T08:44:06.716Z,21.46
2023-04-25T08:46:34.436Z,21.69
2023-04-25T08:49:04.697Z,21.36
2023-04-25T08:51:34.836Z,20.74
2023-04-25T08:54:27.888Z,20.25
2023-04-25T08:56:59.346Z,21.43
2023-04-25T09:01:53.300Z,22.03
2023-04-25T09:04:21.691Z,22.76
2023-04-25T09:06:49.538Z,22.57
2023-04-25T09:09:17.110Z,22.78
2023-04-25T09:11:44.146Z,22.21
2023-04-25T09:14:16.434Z,21.52
2023-04-25T09:17:02.536Z,21.32
2023-04-25T09:19:42.269Z,21.99
2023-04-25T09:22:10.034Z,22.15
2023-04-25T09:24:45.487Z,21.64
2023-04-25T09:27:14.303Z,22.51
2023-04-25T09:29:43.230Z,22.45
2023-04-25T09:32:17.359Z,22.50
2023-04-25T09:34:56.108Z,21.50
2023-04-25T09:37:33.885Z,21.88
2023-04-25T09:40:06.997Z,22.97
2023-04-25T09:42:35.865Z,22.47
2023-04-25T09:45:07.358Z,21.90
2023-04-25T09:47:39.295Z,22.12
2023-04-25T09:50:18.522Z,22.00
2023-04-25T09:52:45.520Z,21.57
2023-04-25T09:55:12.669Z,22.13
2023-04-25T09:57:41.128Z,21.27
2023-04-25T10:00:13.702Z,21.46
2023-04-25T10:02:44.382Z,21.91
2023-04-25T10:05:11.997Z,22.15
2023-04-25T10:07:40.081Z,22.79
2023-04-25T10:10:07.581Z,23.59
2023-04-25T10:12:35.311Z,24.18
2023-04-25T10:15:05.458Z,24.91
2023-04-25T10:17:34.117Z,24.39
2023-04-25T10:20:05.645Z,24.66
2023-04-25T10:22:37.209Z,24.99
2023-04-25T10:25:05.445Z,24.69
2023-04-25T10:27:33.243Z,24.57
2023-04-25T10:30:19.211Z,24.22
2023-04-25T10:32:48.518Z,24.22
2023-04-25T10:35:20.992Z,25.19
2023-04-25T10:38:06.085Z,24.69
2023-04-25T10:40:34.377Z,24.04
2023-04-25T10:43:32.546Z,24.31
2023-04-25T10:46:03.557Z,24.87
2023-04-25T10:48:32.186Z,24.97
2023-04-25T10:54:28.372Z,23.03
2023-04-25T10:57:01.872Z,23.31
2023-04-25T10:59:32.494Z,23.16
2023-04-25T11:01:59.818Z,22.40
2023-04-25T11:04:32.606Z,23.06
2023-04-25T11:07:07.798Z,23.66
2023-04-25T11:09:37.366Z,23.43
2023-04-25T11:12:04.589Z,22.56
2023-04-25T11:14:31.727Z,21.45
2023-04-25T11:17:00.872Z,22.86
2023-04-25T11:19:29.387Z,22.56
2023-04-25T11:22:01.448Z,22.73
2023-04-25T11:24:32.972Z,23.20
2023-04-25T11:27:01.122Z,23.59
2023-04-25T11:29:28.616Z,24.47
2023-04-25T11:31:59.687Z,25.04
2023-04-25T11:34:27.334Z,24.98
2023-04-25T11:36:57.312Z,25.21
2023-04-25T11:39:28.042Z,25.15
2023-04-25T11:41:56.584Z,23.61
2023-04-25T11:44:23.880Z,23.96
2023-04-25T11:46:58.244Z,23.48
2023-04-25T11:49:26.190Z,23.37
2023-04-25T11:51:53.224Z,23.77
2023-04-25T11:54:20.192Z,24.11
2023-04-25T11:56:47.507Z,24.30
2023-04-25T11:59:14.658Z,24.03
2023-04-25T12:02:00.892Z,24.16
2023-04-25T12:04:28.031Z,23.87
2023-04-25T12:06:56.645Z,23.54
2023-04-25T12:09:36.468Z,23.21
2023-04-25T12:12:04.566Z,23.28
2023-04-25T12:14:33.653Z,22.80
2023-04-25T12:17:02.820Z,22.62
2023-04-25T12:19:37.678Z,22.20
2023-04-25T12:22:19.623Z,22.34
2023-04-25T12:24:46.854Z,21.98
2023-04-25T12:27:20.297Z,22.09
2023-04-25T12:29:55.973Z,22.32
2023-04-25T12:32:23.517Z,22.39
2023-04-25T12:34:51.438Z,22.51
2023-04-25T12:37:18.397Z,22.68
2023-04-25T12:39:45.380Z,22.68
2023-04-25T12:42:15.018Z,22.75
2023-04-25T12:44:42.481Z,22.78
2023-04-25T12:47:11.095Z,23.12
2023-04-25T12:49:38.551Z,23.01
2023-04-25T12:52:05.584Z,23.03
2023-04-25T12:54:33.254Z,22.74
2023-04-25T12:57:00.640Z,22.81
2023-04-25T12:59:27.943Z,23.02
2023-04-25T13:01:55.179Z,23.30
2023-04-25T13:04:22.763Z,23.50
2023-04-25T13:06:50.177Z,23.75
2023-04-25T13:09:17.053Z,23.33
2023-04-25T13:11:44.081Z,23.27
2023-04-25T13:14:11.084Z,23.77
2023-04-25T13:16:38.127Z,23.85
2023-04-25T13:19:05.224Z,23.46
2023-04-25T13:21:33.682Z,23.80
2023-04-25T13:24:00.850Z,24.23
2023-04-25T13:26:27.924Z,24.47
2023-04-25T13:28:54.938Z,24.86
2023-04-25T13:31:23.256Z,25.56
2023-04-25T13:33:50.440Z,25.42
2023-04-25T13:36:17.612Z,25.49
2023-04-25T13:38:46.187Z,25.58
2023-04-25T13:41:18.847Z,26.05
2023-04-25T13:43:48.823Z,25.22
2023-04-25T13:46:35.161Z,25.21
2023-04-25T13:49:11.614Z,25.53
2023-04-25T13:51:39.604Z,25.31
2023-04-25T13:54:12.646Z,25.53
2023-04-25T13:56:43.460Z,25.07
2023-04-25T13:59:11.346Z,24.03
2023-04-25T14:01:38.413Z,24.10
2023-04-25T14:04:05.837Z,24.22
2023-04-25T14:06:34.308Z,23.50
2023-04-25T14:09:05.883Z,23.29
2023-04-25T14:11:32.852Z,23.10
2023-04-25T14:13:59.894Z,21.53
2023-04-25T14:16:28.255Z,21.79
2023-04-25T14:18:55.878Z,22.47
2023-04-25T14:21:22.988Z,22.40
2023-04-25T14:23:50.316Z,21.48
2023-04-25T14:26:17.649Z,20.24
2023-04-25T14:28:44.747Z,19.22
2023-04-25T14:31:11.947Z,19.61
2023-04-25T14:33:42.961Z,19.99
2023-04-25T14:36:10.109Z,19.67
2023-04-25T14:38:37.242Z,20.12
2023-04-25T14:41:04.976Z,21.00
2023-04-25T14:43:32.028Z,19.63
2023-04-25T14:45:59.026Z,19.93
2023-04-25T14:48:26.149Z,21.21
2023-04-25T14:50:53.208Z,21.65
2023-04-25T14:53:20.153Z,21.79
2023-04-25T14:55:47.112Z,22.20
2023-04-25T14:58:14.140Z,22.05
2023-04-25T15:00:41.789Z,21.66
2023-04-25T15:03:08.947Z,21.36
2023-04-25T15:05:36.487Z,21.19
2023-04-25T15:08:03.833Z,20.46
2023-04-25T15:10:30.997Z,20.93
2023-04-25T15:12:58.095Z,21.26
2023-04-25T15:15:26.866Z,21.43
2023-04-25T15:17:59.366Z,20.95
2023-04-25T15:20:26.750Z,21.03
2023-04-25T15:22:53.861Z,21.03
2023-04-25T15:25:20.872Z,20.76
2023-04-25T15:27:49.786Z,19.35
2023-04-25T15:30:18.089Z,18.45
2023-04-25T15:32:47.140Z,17.98
2023-04-25T15:35:15.901Z,18.43
2023-04-25T15:37:42.869Z,19.01
2023-04-25T15:40:13.819Z,18.36
2023-04-25T15:42:54.304Z,18.22
2023-04-25T15:45:26.318Z,18.75
2023-04-25T15:47:55.428Z,18.76
2023-04-25T15:50:23.146Z,18.92
2023-04-25T15:52:51.472Z,18.82
2023-04-25T15:55:21.202Z,18.57
2023-04-25T15:57:49.898Z,17.90
2023-04-25T16:00:21.412Z,18.03
2023-04-25T16:02:48.943Z,17.69
2023-04-25T16:05:16.701Z,17.58
2023-04-25T16:07:45.090Z,17.01
2023-04-25T16:10:13.065Z,16.68
2023-04-25T16:12:40.950Z,17.02
2023-04-25T16:15:08.421Z,17.24
2023-04-25T16:17:35.535Z,17.86
2023-04-25T16:20:06.437Z,17.09
2023-04-25T16:22:33.467Z,17.67
2023-04-25T16:25:00.533Z,17.76
2023-04-25T16:27:27.512Z,17.25
2023-04-25T16:29:54.429Z,16.80
2023-04-25T16:32:21.435Z,17.83
2023-04-25T16:34:48.418Z,18.24
2023-04-25T16:37:15.398Z,18.01
2023-04-25T16:39:42.355Z,18.05
2023-04-25T16:42:09.378Z,17.42
2023-04-25T16:44:36.758Z,17.38
2023-04-25T16:47:05.236Z,18.04
2023-04-25T16:49:32.964Z,18.39
2023-04-25T16:51:59.965Z,18.36
2023-04-25T16:54:26.945Z,17.93
2023-04-25T16:56:53.929Z,18.31
2023-04-25T16:59:21.049Z,18.21
2023-04-25T17:01:48.066Z,18.22
2023-04-25T17:04:15.127Z,18.29
2023-04-25T17:06:42.327Z,18.42
2023-04-25T17:09:09.437Z,17.90
2023-04-25T17:11:37.060Z,17.86
2023-04-25T17:14:05.026Z,17.71
2023-04-25T17:16:39.677Z,17.62
2023-04-25T17:19:07.807Z,17.73
2023-04-25T17:21:34.737Z,17.74
2023-04-25T17:24:01.833Z,18.03
2023-04-25T17:26:28.877Z,18.07
2023-04-25T17:28:55.801Z,17.64
2023-04-25T17:31:24.172Z,17.98
2023-04-25T17:33:51.225Z,18.11
2023-04-25T17:36:18.684Z,17.70
2023-04-25T17:38:45.904Z,17.98
2023-04-25T17:41:15.187Z,18.00
2023-04-25T17:43:42.230Z,17.72
2023-04-25T17:46:09.222Z,17.99
2023-04-25T17:48:36.336Z,18.14
2023-04-25T17:51:03.537Z,18.25
2023-04-25T17:53:31.158Z,18.33
2023-04-25T17:55:58.184Z,18.25
2023-04-25T17:58:25.384Z,17.88
2023-04-25T18:00:52.744Z,17.89
2023-04-25T18:03:19.778Z,17.84
2023-04-25T18:05:46.781Z,17.48
2023-04-25T18:08:13.979Z,17.15
2023-04-25T18:10:41.456Z,16.99
2023-04-25T18:13:09.423Z,16.35
2023-04-25T18:15:37.079Z,15.79
2023-04-25T18:18:09.956Z,15.47
2023-04-25T18:20:37.397Z,15.11
2023-04-25T18:23:04.296Z,15.03
2023-04-25T18:25:31.238Z,14.47
2023-04-25T18:27:59.881Z,14.16
2023-04-25T18:30:27.090Z,13.80
2023-04-25T18:32:55.387Z,13.96
2023-04-25T18:35:22.809Z,13.77
2023-04-25T18:37:49.998Z,13.97
2023-04-25T18:40:17.004Z,14.00
2023-04-25T18:42:44.189Z,13.81
2023-04-25T18:45:11.636Z,13.77
2023-04-25T18:47:38.635Z,13.72
2023-04-25T18:50:06.983Z,13.90
2023-04-25T18:52:34.018Z,13.96
2023-04-25T18:55:00.932Z,13.95
2023-04-25T18:57:27.951Z,14.28
2023-04-25T18:59:55.152Z,14.44
2023-04-25T19:02:23.047Z,13.34
2023-04-25T19:04:50.280Z,13.80
2023-04-25T19:07:17.472Z,13.75
2023-04-25T19:09:44.457Z,14.02
2023-04-25T19:12:11.561Z,14.13
2023-04-25T19:14:38.554Z,13.95
2023-04-25T19:17:06.080Z,14.18
2023-04-25T19:19:33.104Z,14.31
2023-04-25T19:22:00.084Z,13.98
2023-04-25T19:24:27.413Z,13.88
2023-04-25T19:26:54.424Z,13.61
2023-04-25T19:29:21.591Z,12.82
2023-04-25T19:31:48.523Z,13.59
2023-04-25T19:34:15.506Z,13.20
2023-04-25T19:36:42.870Z,13.14
2023-04-25T19:39:11.129Z,13.11
2023-04-25T19:41:39.065Z,13.40
2023-04-25T19:44:08.864Z,13.48
2023-04-25T19:46:37.360Z,13.40
2023-04-25T19:49:08.553Z,13.47
2023-04-25T19:51:36.766Z,13.36
2023-04-25T19:54:04.569Z,13.48
2023-04-25T19:56:31.574Z,13.14
2023-04-25T19:58:58.724Z,13.27
2023-04-25T20:01:26.452Z,12.82
2023-04-25T20:03:53.814Z,13.44
2023-04-25T20:06:21.097Z,13.54
2023-04-25T20:08:48.178Z,13.60
2023-04-25T20:11:15.359Z,13.77
2023-04-25T20:13:42.352Z,13.51
2023-04-25T20:16:09.500Z,13.86
2023-04-25T20:18:36.526Z,13.34
2023-04-25T20:21:03.610Z,13.69
2023-04-25T20:23:30.618Z,14.15
2023-04-25T20:25:57.806Z,13.81
2023-04-25T20:28:24.765Z,13.92
2023-04-25T20:30:51.937Z,13.91
2023-04-25T20:33:18.990Z,13.73
2023-04-25T20:35:46.713Z,13.90
2023-04-25T20:38:13.752Z,13.69
2023-04-25T20:40:40.782Z,13.74
2023-04-25T20:43:07.807Z,13.92
2023-04-25T20:45:34.834Z,14.00
2023-04-25T20:48:03.008Z,13.89
2023-04-25T20:50:30.041Z,13.77
2023-04-25T20:52:57.592Z,13.50
2023-04-25T20:55:24.826Z,13.53
2023-04-25T20:57:52.290Z,13.39
2023-04-25T21:00:26.875Z,13.13
2023-04-25T21:02:54.703Z,13.33
2023-04-25T21:05:22.675Z,13.19
2023-04-25T21:07:52.522Z,13.16
2023-04-25T21:10:19.344Z,13.00
2023-04-25T21:12:50.193Z,12.31
2023-04-25T21:15:20.473Z,12.61
2023-04-25T21:17:48.922Z,12.53
2023-04-25T21:20:18.216Z,12.67
2023-04-25T21:22:54.239Z,12.68
2023-04-25T21:25:31.924Z,12.83
2023-04-25T21:27:59.886Z,12.72
2023-04-25T21:30:27.275Z,12.23
2023-04-25T21:32:54.631Z,12.31
2023-04-25T21:35:22.762Z,12.15
2023-04-25T21:37:51.741Z,12.36
2023-04-25T21:40:19.193Z,12.44
2023-04-25T21:42:53.816Z,12.45
2023-04-25T21:45:21.330Z,12.44
2023-04-25T21:47:48.799Z,12.10
2023-04-25T21:50:16.531Z,12.10
2023-04-25T21:52:43.713Z,12.14
2023-04-25T21:55:11.760Z,12.11
2023-04-25T21:57:38.731Z,12.01
2023-04-25T22:00:20.293Z,12.32
2023-04-25T22:02:48.177Z,12.22
2023-04-25T22:05:15.631Z,12.38
2023-04-25T22:07:42.568Z,12.13
2023-04-25T22:10:10.005Z,12.12
2023-04-25T22:12:37.660Z,11.94
2023-04-25T22:15:04.961Z,11.94
2023-04-25T22:17:33.481Z,11.91
2023-04-25T22:20:01.734Z,11.31
2023-04-25T22:22:28.865Z,12.19
2023-04-25T22:24:56.572Z,12.13
2023-04-25T22:27:23.902Z,11.94
2023-04-25T22:29:50.772Z,12.03
2023-04-25T22:32:17.726Z,12.04
2023-04-25T22:34:44.830Z,12.03
2023-04-25T22:37:11.812Z,11.59
2023-04-25T22:39:38.713Z,11.76
2023-04-25T22:42:06.160Z,11.82
2023-04-25T22:44:33.964Z,11.77
2023-04-25T22:47:01.734Z,11.86
2023-04-25T22:49:29.098Z,11.37
2023-04-25T22:51:57.068Z,11.89
2023-04-25T22:54:24.325Z,11.90
2023-04-25T22:56:51.381Z,11.28
2023-04-25T22:59:20.873Z,11.31
2023-04-25T23:01:50.245Z,11.56
2023-04-25T23:04:19.271Z,11.64
2023-04-25T23:06:46.651Z,11.48
2023-04-25T23:09:14.263Z,11.46
2023-04-25T23:11:44.154Z,11.64
2023-04-25T23:14:10.999Z,11.71
2023-04-25T23:16:37.961Z,11.21
2023-04-25T23:19:04.879Z,11.63
2023-04-25T23:21:31.763Z,11.21
2023-04-25T23:23:58.836Z,11.36
2023-04-25T23:26:25.792Z,11.21
2023-04-25T23:28:52.908Z,11.48
2023-04-25T23:31:20.234Z,11.00
2023-04-25T23:33:47.153Z,11.34
2023-04-25T23:36:21.609Z,11.48
2023-04-25T23:38:49.028Z,10.90
2023-04-25T23:41:16.283Z,11.36
2023-04-25T23:43:43.347Z,11.02
2023-04-25T23:46:10.403Z,10.98
2023-04-25T23:48:37.318Z,10.74
2023-04-25T23:51:04.254Z,10.59
2023-04-25T23:53:31.234Z,11.03
2023-04-25T23:55:58.221Z,11.12
2023-04-25T23:58:25.153Z,10.33
